sensor_id;sensor_type;location;lat;lon;timestamp;P1;durP1;ratioP1;P2;durP2;ratioP2
4096;SDS011;2062;50.694;7.246;2023-11-19T00:01:09;2.60;;;0.40;;
4096;SDS011;2062;50.694;7.246;2023-11-19T00:03:36;2.03;;;0.38;;
4096;SDS011;2062;50.694;7.246;2023-11-19T00:06:04;2.27;;;0.40;;
4096;SDS011;2062;50.694;7.246;2023-11-19T00:08:32;2.17;;;0.40;;
4096;SDS011;2062;50.694;7.246;2023-11-19T00:10:58;2.40;;;0.40;;
4096;SDS011;2062;50.694;7.246;2023-11-19T00:13:26;1.90;;;0.38;;
4096;SDS011;2062;50.694;7.246;2023-11-19T00:15:53;2.30;;;0.40;;
4096;SDS011;2062;50.694;7.246;2023-11-19T00:18:19;1.63;;;0.30;;
4096;SDS011;2062;50.694;7.246;2023-11-19T00:20:47;1.80;;;0.35;;
4096;SDS011;2062;50.694;7.246;2023-11-19T00:23:15;2.85;;;0.40;;
4096;SDS011;2062;50.694;7.246;2023-11-19T00:25:42;4.53;;;0.50;;
4096;SDS011;2062;50.694;7.246;2023-11-19T00:28:09;2.63;;;0.40;;
4096;SDS011;2062;50.694;7.246;2023-11-19T00:30:36;1.90;;;0.40;;
4096;SDS011;2062;50.694;7.246;2023-11-19T00:33:03;1.65;;;0.28;;
4096;SDS011;2062;50.694;7.246;2023-11-19T00:35:30;2.10;;;0.30;;
4096;SDS011;2062;50.694;7.246;2023-11-19T00:37:58;3.90;;;0.40;;
4096;SDS011;2062;50.694;7.246;2023-11-19T00:40:26;2.08;;;0.30;;
4096;SDS011;2062;50.694;7.246;2023-11-19T00:42:53;2.50;;;0.40;;
4096;SDS011;2062;50.694;7.246;2023-11-19T00:45:20;2.47;;;0.40;;
4096;SDS011;2062;50.694;7.246;2023-11-19T00:47:47;1.67;;;0.30;;
4096;SDS011;2062;50.694;7.246;2023-11-19T00:50:14;2.05;;;0.40;;
4096;SDS011;2062;50.694;7.246;2023-11-19T00:52:39;3.43;;;0.50;;
4096;SDS011;2062;50.694;7.246;2023-11-19T00:55:06;2.10;;;0.40;;
4096;SDS011;2062;50.694;7.246;2023-11-19T00:57:35;2.65;;;0.40;;
4096;SDS011;2062;50.694;7.246;2023-11-19T01:00:02;1.88;;;0.35;;
4096;SDS011;2062;50.694;7.246;2023-11-19T01:02:34;1.90;;;0.30;;
4096;SDS011;2062;50.694;7.246;2023-11-19T01:05:00;1.97;;;0.30;;
4096;SDS011;2062;50.694;7.246;2023-11-19T01:07:27;1.95;;;0.40;;
4096;SDS011;2062;50.694;7.246;2023-11-19T01:09:54;2.47;;;0.50;;
4096;SDS011;2062;50.694;7.246;2023-11-19T01:12:21;2.08;;;0.30;;
4096;SDS011;2062;50.694;7.246;2023-11-19T01:14:49;1.88;;;0.40;;
4096;SDS011;2062;50.694;7.246;2023-11-19T01:17:16;2.10;;;0.43;;
4096;SDS011;2062;50.694;7.246;2023-11-19T01:19:42;3.00;;;0.35;;
4096;SDS011;2062;50.694;7.246;2023-11-19T01:22:09;1.75;;;0.30;;
4096;SDS011;2062;50.694;7.246;2023-11-19T01:24:36;2.03;;;0.40;;
4096;SDS011;2062;50.694;7.246;2023-11-19T01:27:03;2.05;;;0.43;;
4096;SDS011;2062;50.694;7.246;2023-11-19T01:29:30;1.50;;;0.27;;
4096;SDS011;2062;50.694;7.246;2023-11-19T01:31:58;1.85;;;0.30;;
4096;SDS011;2062;50.694;7.246;2023-11-19T01:34:25;2.75;;;0.40;;
4096;SDS011;2062;50.694;7.246;2023-11-19T01:36:51;2.35;;;0.47;;
4096;SDS011;2062;50.694;7.246;2023-11-19T01:39:18;2.60;;;0.70;;
4096;SDS011;2062;50.694;7.246;2023-11-19T01:41:46;2.80;;;0.40;;
4096;SDS011;2062;50.694;7.246;2023-11-19T01:44:13;2.95;;;0.50;;
4096;SDS011;2062;50.694;7.246;2023-11-19T01:46:40;2.50;;;0.47;;
4096;SDS011;2062;50.694;7.246;2023-11-19T01:49:09;2.17;;;0.40;;
4096;SDS011;2062;50.694;7.246;2023-11-19T01:51:37;1.88;;;0.35;;
4096;SDS011;2062;50.694;7.246;2023-11-19T01:54:05;2.30;;;0.47;;
4096;SDS011;2062;50.694;7.246;2023-11-19T01:56:33;2.60;;;0.50;;
4096;SDS011;2062;50.694;7.246;2023-11-19T01:59:00;3.65;;;0.50;;
4096;SDS011;2062;50.694;7.246;2023-11-19T02:01:29;2.30;;;0.40;;
4096;SDS011;2062;50.694;7.246;2023-11-19T02:03:57;2.50;;;0.50;;
4096;SDS011;2062;50.694;7.246;2023-11-19T02:06:26;1.80;;;0.30;;
4096;SDS011;2062;50.694;7.246;2023-11-19T02:08:54;2.50;;;0.47;;
4096;SDS011;2062;50.694;7.246;2023-11-19T02:11:20;2.47;;;0.40;;
4096;SDS011;2062;50.694;7.246;2023-11-19T02:13:47;2.17;;;0.47;;
4096;SDS011;2062;50.694;7.246;2023-11-19T02:16:14;2.72;;;0.40;;
4096;SDS011;2062;50.694;7.246;2023-11-19T02:18:41;2.37;;;0.40;;
4096;SDS011;2062;50.694;7.246;2023-11-19T02:21:08;5.18;;;0.60;;
4096;SDS011;2062;50.694;7.246;2023-11-19T02:23:37;2.20;;;0.57;;
4096;SDS011;2062;50.694;7.246;2023-11-19T02:26:07;2.20;;;0.40;;
4096;SDS011;2062;50.694;7.246;2023-11-19T02:28:41;3.08;;;0.60;;
4096;SDS011;2062;50.694;7.246;2023-11-19T02:31:09;3.30;;;0.50;;
4096;SDS011;2062;50.694;7.246;2023-11-19T02:33:36;3.38;;;0.40;;
4096;SDS011;2062;50.694;7.246;2023-11-19T02:36:03;1.88;;;0.30;;
4096;SDS011;2062;50.694;7.246;2023-11-19T02:38:32;2.33;;;0.40;;
4096;SDS011;2062;50.694;7.246;2023-11-19T02:40:59;1.85;;;0.30;;
4096;SDS011;2062;50.694;7.246;2023-11-19T02:43:30;1.80;;;0.30;;
4096;SDS011;2062;50.694;7.246;2023-11-19T02:45:59;1.58;;;0.30;;
4096;SDS011;2062;50.694;7.246;2023-11-19T02:48:26;1.58;;;0.30;;
4096;SDS011;2062;50.694;7.246;2023-11-19T02:50:53;1.95;;;0.40;;
4096;SDS011;2062;50.694;7.246;2023-11-19T02:53:23;2.17;;;0.40;;
4096;SDS011;2062;50.694;7.246;2023-11-19T02:55:52;3.17;;;0.30;;
4096;SDS011;2062;50.694;7.246;2023-11-19T02:58:26;2.08;;;0.40;;
4096;SDS011;2062;50.694;7.246;2023-11-19T03:00:53;2.92;;;0.47;;
4096;SDS011;2062;50.694;7.246;2023-11-19T03:03:26;3.75;;;0.40;;
4096;SDS011;2062;50.694;7.246;2023-11-19T03:06:03;2.97;;;0.50;;
4096;SDS011;2062;50.694;7.246;2023-11-19T03:08:30;2.10;;;0.30;;
4096;SDS011;2062;50.694;7.246;2023-11-19T03:10:57;3.22;;;0.40;;
4096;SDS011;2062;50.694;7.246;2023-11-19T03:13:24;2.25;;;0.40;;
4096;SDS011;2062;50.694;7.246;2023-11-19T03:15:51;2.17;;;0.40;;
4096;SDS011;2062;50.694;7.246;2023-11-19T03:18:18;3.38;;;0.50;;
4096;SDS011;2062;50.694;7.246;2023-11-19T03:20:47;3.07;;;0.30;;
4096;SDS011;2062;50.694;7.246;2023-11-19T03:23:14;1.83;;;0.30;;
4096;SDS011;2062;50.694;7.246;2023-11-19T03:25:41;1.95;;;0.30;;
4096;SDS011;2062;50.694;7.246;2023-11-19T03:28:08;2.25;;;0.30;;
4096;SDS011;2062;50.694;7.246;2023-11-19T03:30:36;2.88;;;0.40;;
4096;SDS011;2062;50.694;7.246;2023-11-19T03:33:03;1.70;;;0.20;;
4096;SDS011;2062;50.694;7.246;2023-11-19T03:35:29;2.42;;;0.38;;
4096;SDS011;2062;50.694;7.246;2023-11-19T03:37:59;3.55;;;0.50;;
4096;SDS011;2062;50.694;7.246;2023-11-19T03:40:27;3.25;;;0.40;;
4096;SDS011;2062;50.694;7.246;2023-11-19T03:42:55;6.10;;;0.57;;
4096;SDS011;2062;50.694;7.246;2023-11-19T03:45:22;4.37;;;0.50;;
4096;SDS011;2062;50.694;7.246;2023-11-19T03:47:49;4.63;;;0.57;;
4096;SDS011;2062;50.694;7.246;2023-11-19T03:50:16;5.18;;;0.50;;
4096;SDS011;2062;50.694;7.246;2023-11-19T03:52:45;4.28;;;0.47;;
4096;SDS011;2062;50.694;7.246;2023-11-19T03:55:13;5.90;;;0.90;;
4096;SDS011;2062;50.694;7.246;2023-11-19T03:57:40;5.27;;;0.57;;
4096;SDS011;2062;50.694;7.246;2023-11-19T04:00:07;3.15;;;0.50;;
4096;SDS011;2062;50.694;7.246;2023-11-19T04:02:35;2.95;;;0.50;;
4096;SDS011;2062;50.694;7.246;2023-11-19T04:05:01;3.72;;;0.45;;
4096;SDS011;2062;50.694;7.246;2023-11-19T04:07:29;3.65;;;0.70;;
4096;SDS011;2062;50.694;7.246;2023-11-19T04:09:56;3.27;;;0.50;;
4096;SDS011;2062;50.694;7.246;2023-11-19T04:12:24;6.47;;;0.73;;
4096;SDS011;2062;50.694;7.246;2023-11-19T04:14:51;6.78;;;1.23;;
4096;SDS011;2062;50.694;7.246;2023-11-19T04:17:18;9.25;;;0.80;;
4096;SDS011;2062;50.694;7.246;2023-11-19T04:19:45;5.75;;;0.77;;
4096;SDS011;2062;50.694;7.246;2023-11-19T04:22:11;7.90;;;0.60;;
4096;SDS011;2062;50.694;7.246;2023-11-19T04:24:39;5.75;;;1.00;;
4096;SDS011;2062;50.694;7.246;2023-11-19T04:27:09;6.78;;;0.77;;
4096;SDS011;2062;50.694;7.246;2023-11-19T04:29:37;5.95;;;0.65;;
4096;SDS011;2062;50.694;7.246;2023-11-19T04:32:04;6.78;;;0.70;;
4096;SDS011;2062;50.694;7.246;2023-11-19T04:34:32;4.40;;;0.70;;
4096;SDS011;2062;50.694;7.246;2023-11-19T04:36:58;4.80;;;0.73;;
4096;SDS011;2062;50.694;7.246;2023-11-19T04:39:27;5.28;;;0.90;;
4096;SDS011;2062;50.694;7.246;2023-11-19T04:41:53;4.38;;;0.73;;
4096;SDS011;2062;50.694;7.246;2023-11-19T04:44:20;3.92;;;0.68;;
4096;SDS011;2062;50.694;7.246;2023-11-19T04:46:48;5.00;;;0.73;;
4096;SDS011;2062;50.694;7.246;2023-11-19T04:49:15;5.65;;;0.77;;
4096;SDS011;2062;50.694;7.246;2023-11-19T04:51:44;5.80;;;1.13;;
4096;SDS011;2062;50.694;7.246;2023-11-19T04:54:12;4.28;;;0.85;;
4096;SDS011;2062;50.694;7.246;2023-11-19T04:56:39;2.53;;;0.52;;
4096;SDS011;2062;50.694;7.246;2023-11-19T04:59:06;6.07;;;0.70;;
4096;SDS011;2062;50.694;7.246;2023-11-19T05:01:34;5.97;;;0.80;;
4096;SDS011;2062;50.694;7.246;2023-11-19T05:04:02;5.82;;;0.70;;
4096;SDS011;2062;50.694;7.246;2023-11-19T05:06:29;7.57;;;0.90;;
4096;SDS011;2062;50.694;7.246;2023-11-19T05:08:58;6.47;;;0.98;;
4096;SDS011;2062;50.694;7.246;2023-11-19T05:11:28;7.87;;;1.20;;
4096;SDS011;2062;50.694;7.246;2023-11-19T05:13:55;6.60;;;0.90;;
4096;SDS011;2062;50.694;7.246;2023-11-19T05:16:22;12.68;;;1.27;;
4096;SDS011;2062;50.694;7.246;2023-11-19T05:18:49;6.60;;;0.90;;
4096;SDS011;2062;50.694;7.246;2023-11-19T05:21:17;4.30;;;0.98;;
4096;SDS011;2062;50.694;7.246;2023-11-19T05:23:44;7.60;;;0.83;;
4096;SDS011;2062;50.694;7.246;2023-11-19T05:26:17;6.03;;;1.00;;
4096;SDS011;2062;50.694;7.246;2023-11-19T05:28:44;5.68;;;1.05;;
4096;SDS011;2062;50.694;7.246;2023-11-19T05:31:11;5.43;;;0.95;;
4096;SDS011;2062;50.694;7.246;2023-11-19T05:33:38;8.23;;;0.90;;
4096;SDS011;2062;50.694;7.246;2023-11-19T05:36:06;7.50;;;1.00;;
4096;SDS011;2062;50.694;7.246;2023-11-19T05:38:34;7.65;;;1.10;;
4096;SDS011;2062;50.694;7.246;2023-11-19T05:41:01;8.10;;;1.15;;
4096;SDS011;2062;50.694;7.246;2023-11-19T05:43:29;5.95;;;0.82;;
4096;SDS011;2062;50.694;7.246;2023-11-19T05:45:56;10.75;;;1.40;;
4096;SDS011;2062;50.694;7.246;2023-11-19T05:48:24;7.20;;;1.00;;
4096;SDS011;2062;50.694;7.246;2023-11-19T05:50:53;8.15;;;1.27;;
4096;SDS011;2062;50.694;7.246;2023-11-19T05:53:20;7.25;;;1.20;;
4096;SDS011;2062;50.694;7.246;2023-11-19T05:55:48;10.40;;;1.50;;
4096;SDS011;2062;50.694;7.246;2023-11-19T05:58:20;10.15;;;1.38;;
4096;SDS011;2062;50.694;7.246;2023-11-19T06:00:50;8.10;;;1.00;;
4096;SDS011;2062;50.694;7.246;2023-11-19T06:03:17;5.97;;;1.20;;
4096;SDS011;2062;50.694;7.246;2023-11-19T06:05:44;8.13;;;1.13;;
4096;SDS011;2062;50.694;7.246;2023-11-19T06:08:11;8.52;;;1.38;;
4096;SDS011;2062;50.694;7.246;2023-11-19T06:10:39;10.13;;;1.38;;
4096;SDS011;2062;50.694;7.246;2023-11-19T06:13:07;12.40;;;1.40;;
4096;SDS011;2062;50.694;7.246;2023-11-19T06:15:35;8.98;;;1.10;;
4096;SDS011;2062;50.694;7.246;2023-11-19T06:18:02;8.40;;;1.35;;
4096;SDS011;2062;50.694;7.246;2023-11-19T06:20:29;10.50;;;1.55;;
4096;SDS011;2062;50.694;7.246;2023-11-19T06:22:57;10.02;;;1.63;;
4096;SDS011;2062;50.694;7.246;2023-11-19T06:25:23;11.60;;;2.13;;
4096;SDS011;2062;50.694;7.246;2023-11-19T06:27:50;12.45;;;1.20;;
4096;SDS011;2062;50.694;7.246;2023-11-19T06:30:19;8.55;;;1.42;;
4096;SDS011;2062;50.694;7.246;2023-11-19T06:32:46;9.90;;;1.50;;
4096;SDS011;2062;50.694;7.246;2023-11-19T06:35:13;11.15;;;1.45;;
4096;SDS011;2062;50.694;7.246;2023-11-19T06:37:40;12.20;;;1.50;;
4096;SDS011;2062;50.694;7.246;2023-11-19T06:40:07;8.38;;;1.30;;
4096;SDS011;2062;50.694;7.246;2023-11-19T06:42:35;13.68;;;1.48;;
4096;SDS011;2062;50.694;7.246;2023-11-19T06:45:02;10.15;;;1.20;;
4096;SDS011;2062;50.694;7.246;2023-11-19T06:47:30;10.23;;;1.40;;
4096;SDS011;2062;50.694;7.246;2023-11-19T06:49:57;11.07;;;1.30;;
4096;SDS011;2062;50.694;7.246;2023-11-19T06:52:24;8.02;;;1.38;;
4096;SDS011;2062;50.694;7.246;2023-11-19T06:54:51;9.63;;;1.35;;
4096;SDS011;2062;50.694;7.246;2023-11-19T06:57:17;8.45;;;1.40;;
4096;SDS011;2062;50.694;7.246;2023-11-19T06:59:45;8.70;;;1.23;;
4096;SDS011;2062;50.694;7.246;2023-11-19T07:02:12;8.00;;;1.33;;
4096;SDS011;2062;50.694;7.246;2023-11-19T07:04:40;11.13;;;1.42;;
4096;SDS011;2062;50.694;7.246;2023-11-19T07:07:07;11.90;;;1.30;;
4096;SDS011;2062;50.694;7.246;2023-11-19T07:09:34;6.30;;;1.20;;
4096;SDS011;2062;50.694;7.246;2023-11-19T07:12:02;14.82;;;1.30;;
4096;SDS011;2062;50.694;7.246;2023-11-19T07:14:29;13.43;;;1.47;;
4096;SDS011;2062;50.694;7.246;2023-11-19T07:16:56;9.85;;;1.45;;
4096;SDS011;2062;50.694;7.246;2023-11-19T07:19:23;10.93;;;1.40;;
4096;SDS011;2062;50.694;7.246;2023-11-19T07:21:51;9.23;;;1.20;;
4096;SDS011;2062;50.694;7.246;2023-11-19T07:24:19;11.65;;;1.75;;
4096;SDS011;2062;50.694;7.246;2023-11-19T07:26:46;11.87;;;1.37;;
4096;SDS011;2062;50.694;7.246;2023-11-19T07:29:13;10.63;;;1.52;;
4096;SDS011;2062;50.694;7.246;2023-11-19T07:31:41;15.18;;;1.80;;
4096;SDS011;2062;50.694;7.246;2023-11-19T07:34:09;12.70;;;1.50;;
4096;SDS011;2062;50.694;7.246;2023-11-19T07:36:36;12.02;;;1.30;;
4096;SDS011;2062;50.694;7.246;2023-11-19T07:39:05;12.53;;;1.77;;
4096;SDS011;2062;50.694;7.246;2023-11-19T07:41:32;12.18;;;1.45;;
4096;SDS011;2062;50.694;7.246;2023-11-19T07:43:58;10.40;;;1.35;;
4096;SDS011;2062;50.694;7.246;2023-11-19T07:46:25;10.45;;;1.63;;
4096;SDS011;2062;50.694;7.246;2023-11-19T07:48:52;11.63;;;1.45;;
4096;SDS011;2062;50.694;7.246;2023-11-19T07:51:19;7.63;;;1.37;;
4096;SDS011;2062;50.694;7.246;2023-11-19T07:53:46;14.30;;;1.75;;
4096;SDS011;2062;50.694;7.246;2023-11-19T07:56:15;10.82;;;1.58;;
4096;SDS011;2062;50.694;7.246;2023-11-19T07:58:42;11.30;;;1.40;;
4096;SDS011;2062;50.694;7.246;2023-11-19T08:01:09;14.43;;;1.67;;
4096;SDS011;2062;50.694;7.246;2023-11-19T08:03:35;14.90;;;2.00;;
4096;SDS011;2062;50.694;7.246;2023-11-19T08:06:03;12.45;;;1.50;;
4096;SDS011;2062;50.694;7.246;2023-11-19T08:08:30;11.88;;;1.60;;
4096;SDS011;2062;50.694;7.246;2023-11-19T08:10:58;12.88;;;2.17;;
4096;SDS011;2062;50.694;7.246;2023-11-19T08:13:26;16.42;;;1.83;;
4096;SDS011;2062;50.694;7.246;2023-11-19T08:15:53;10.63;;;1.40;;
4096;SDS011;2062;50.694;7.246;2023-11-19T08:18:20;11.65;;;1.55;;
4096;SDS011;2062;50.694;7.246;2023-11-19T08:20:47;10.60;;;1.83;;
4096;SDS011;2062;50.694;7.246;2023-11-19T08:23:17;13.43;;;1.38;;
4096;SDS011;2062;50.694;7.246;2023-11-19T08:25:44;13.85;;;1.75;;
4096;SDS011;2062;50.694;7.246;2023-11-19T08:28:11;12.27;;;1.83;;
4096;SDS011;2062;50.694;7.246;2023-11-19T08:30:39;16.77;;;1.80;;
4096;SDS011;2062;50.694;7.246;2023-11-19T08:33:06;14.65;;;1.60;;
4096;SDS011;2062;50.694;7.246;2023-11-19T08:35:33;11.25;;;1.45;;
4096;SDS011;2062;50.694;7.246;2023-11-19T08:37:59;10.20;;;1.40;;
4096;SDS011;2062;50.694;7.246;2023-11-19T08:40:27;15.13;;;1.90;;
4096;SDS011;2062;50.694;7.246;2023-11-19T08:42:54;15.57;;;1.95;;
4096;SDS011;2062;50.694;7.246;2023-11-19T08:45:21;13.18;;;1.70;;
4096;SDS011;2062;50.694;7.246;2023-11-19T08:47:50;14.98;;;2.17;;
4096;SDS011;2062;50.694;7.246;2023-11-19T08:50:16;14.90;;;1.80;;
4096;SDS011;2062;50.694;7.246;2023-11-19T08:52:43;15.60;;;1.87;;
4096;SDS011;2062;50.694;7.246;2023-11-19T08:55:10;17.23;;;1.67;;
4096;SDS011;2062;50.694;7.246;2023-11-19T08:57:38;12.25;;;2.00;;
4096;SDS011;2062;50.694;7.246;2023-11-19T09:00:06;9.55;;;1.80;;
4096;SDS011;2062;50.694;7.246;2023-11-19T09:02:33;16.48;;;2.22;;
4096;SDS011;2062;50.694;7.246;2023-11-19T09:05:03;12.40;;;2.07;;
4096;SDS011;2062;50.694;7.246;2023-11-19T09:07:32;13.57;;;2.10;;
4096;SDS011;2062;50.694;7.246;2023-11-19T09:09:59;15.13;;;1.60;;
4096;SDS011;2062;50.694;7.246;2023-11-19T09:12:26;15.40;;;1.55;;
4096;SDS011;2062;50.694;7.246;2023-11-19T09:14:52;12.02;;;1.75;;
4096;SDS011;2062;50.694;7.246;2023-11-19T09:17:19;15.10;;;1.67;;
4096;SDS011;2062;50.694;7.246;2023-11-19T09:19:46;11.93;;;1.38;;
4096;SDS011;2062;50.694;7.246;2023-11-19T09:22:14;14.38;;;2.05;;
4096;SDS011;2062;50.694;7.246;2023-11-19T09:24:41;14.95;;;1.80;;
4096;SDS011;2062;50.694;7.246;2023-11-19T09:27:09;12.27;;;1.60;;
4096;SDS011;2062;50.694;7.246;2023-11-19T09:29:36;9.13;;;1.10;;
4096;SDS011;2062;50.694;7.246;2023-11-19T09:32:03;12.48;;;1.90;;
4096;SDS011;2062;50.694;7.246;2023-11-19T09:34:31;12.88;;;1.92;;
4096;SDS011;2062;50.694;7.246;2023-11-19T09:36:57;13.82;;;1.83;;
4096;SDS011;2062;50.694;7.246;2023-11-19T09:39:26;15.93;;;1.70;;
4096;SDS011;2062;50.694;7.246;2023-11-19T09:41:52;11.27;;;1.47;;
4096;SDS011;2062;50.694;7.246;2023-11-19T09:44:19;11.43;;;1.45;;
4096;SDS011;2062;50.694;7.246;2023-11-19T09:46:46;16.25;;;1.90;;
4096;SDS011;2062;50.694;7.246;2023-11-19T09:49:14;15.18;;;1.50;;
4096;SDS011;2062;50.694;7.246;2023-11-19T09:51:44;11.68;;;1.58;;
4096;SDS011;2062;50.694;7.246;2023-11-19T09:54:11;13.63;;;2.07;;
4096;SDS011;2062;50.694;7.246;2023-11-19T09:56:40;15.52;;;1.60;;
4096;SDS011;2062;50.694;7.246;2023-11-19T09:59:07;13.50;;;1.52;;
4096;SDS011;2062;50.694;7.246;2023-11-19T10:01:35;12.15;;;1.73;;
4096;SDS011;2062;50.694;7.246;2023-11-19T10:04:04;12.63;;;1.88;;
4096;SDS011;2062;50.694;7.246;2023-11-19T10:06:32;15.43;;;1.83;;
4096;SDS011;2062;50.694;7.246;2023-11-19T10:08:59;14.85;;;1.80;;
4096;SDS011;2062;50.694;7.246;2023-11-19T10:11:26;14.23;;;1.60;;
4096;SDS011;2062;50.694;7.246;2023-11-19T10:13:54;21.80;;;2.08;;
4096;SDS011;2062;50.694;7.246;2023-11-19T10:16:27;16.40;;;1.75;;
4096;SDS011;2062;50.694;7.246;2023-11-19T10:18:56;11.13;;;1.87;;
4096;SDS011;2062;50.694;7.246;2023-11-19T10:21:23;15.02;;;1.88;;
4096;SDS011;2062;50.694;7.246;2023-11-19T10:23:53;12.65;;;1.88;;
4096;SDS011;2062;50.694;7.246;2023-11-19T10:26:22;14.32;;;1.70;;
4096;SDS011;2062;50.694;7.246;2023-11-19T10:28:49;17.73;;;2.28;;
4096;SDS011;2062;50.694;7.246;2023-11-19T10:31:18;11.93;;;1.90;;
4096;SDS011;2062;50.694;7.246;2023-11-19T10:33:49;15.00;;;2.13;;
4096;SDS011;2062;50.694;7.246;2023-11-19T10:36:16;13.82;;;2.00;;
4096;SDS011;2062;50.694;7.246;2023-11-19T10:38:52;14.38;;;1.90;;
4096;SDS011;2062;50.694;7.246;2023-11-19T10:41:29;14.15;;;1.80;;
4096;SDS011;2062;50.694;7.246;2023-11-19T10:43:56;9.57;;;1.90;;
4096;SDS011;2062;50.694;7.246;2023-11-19T10:46:35;11.48;;;1.90;;
4096;SDS011;2062;50.694;7.246;2023-11-19T10:49:03;16.48;;;2.00;;
4096;SDS011;2062;50.694;7.246;2023-11-19T10:51:31;16.73;;;2.55;;
4096;SDS011;2062;50.694;7.246;2023-11-19T10:53:59;11.30;;;1.88;;
4096;SDS011;2062;50.694;7.246;2023-11-19T10:56:30;9.47;;;1.50;;
4096;SDS011;2062;50.694;7.246;2023-11-19T10:58:58;12.75;;;2.40;;
4096;SDS011;2062;50.694;7.246;2023-11-19T11:01:27;14.68;;;1.90;;
4096;SDS011;2062;50.694;7.246;2023-11-19T11:03:59;11.57;;;2.38;;
4096;SDS011;2062;50.694;7.246;2023-11-19T11:06:28;19.10;;;1.90;;
4096;SDS011;2062;50.694;7.246;2023-11-19T11:08:56;14.10;;;1.87;;
4096;SDS011;2062;50.694;7.246;2023-11-19T11:11:23;21.35;;;2.42;;
4096;SDS011;2062;50.694;7.246;2023-11-19T11:13:51;13.68;;;1.75;;
4096;SDS011;2062;50.694;7.246;2023-11-19T11:16:21;12.75;;;2.08;;
4096;SDS011;2062;50.694;7.246;2023-11-19T11:18:51;13.68;;;1.70;;
4096;SDS011;2062;50.694;7.246;2023-11-19T11:21:20;15.10;;;1.87;;
4096;SDS011;2062;50.694;7.246;2023-11-19T11:24:07;11.85;;;2.00;;
4096;SDS011;2062;50.694;7.246;2023-11-19T11:29:56;12.32;;;1.63;;
4096;SDS011;2062;50.694;7.246;2023-11-19T11:32:33;11.30;;;1.50;;
4096;SDS011;2062;50.694;7.246;2023-11-19T11:35:15;10.40;;;1.40;;
4096;SDS011;2062;50.694;7.246;2023-11-19T11:37:53;13.18;;;1.70;;
4096;SDS011;2062;50.694;7.246;2023-11-19T11:40:26;13.30;;;2.08;;
4096;SDS011;2062;50.694;7.246;2023-11-19T11:42:53;11.40;;;1.45;;
4096;SDS011;2062;50.694;7.246;2023-11-19T11:45:20;13.10;;;1.92;;
4096;SDS011;2062;50.694;7.246;2023-11-19T11:48:06;10.67;;;1.53;;
4096;SDS011;2062;50.694;7.246;2023-11-19T11:50:52;13.82;;;1.60;;
4096;SDS011;2062;50.694;7.246;2023-11-19T11:53:20;10.77;;;1.67;;
4096;SDS011;2062;50.694;7.246;2023-11-19T11:55:53;10.90;;;1.50;;
4096;SDS011;2062;50.694;7.246;2023-11-19T11:58:21;14.38;;;1.92;;
4096;SDS011;2062;50.694;7.246;2023-11-19T12:00:52;12.90;;;2.10;;
4096;SDS011;2062;50.694;7.246;2023-11-19T12:03:20;14.50;;;1.95;;
4096;SDS011;2062;50.694;7.246;2023-11-19T12:05:48;9.27;;;1.30;;
4096;SDS011;2062;50.694;7.246;2023-11-19T12:08:19;13.30;;;1.92;;
4096;SDS011;2062;50.694;7.246;2023-11-19T12:10:50;8.77;;;1.50;;
4096;SDS011;2062;50.694;7.246;2023-11-19T12:13:19;18.73;;;2.20;;
4096;SDS011;2062;50.694;7.246;2023-11-19T12:18:36;12.13;;;1.63;;
4096;SDS011;2062;50.694;7.246;2023-11-19T12:21:06;11.68;;;1.48;;
4096;SDS011;2062;50.694;7.246;2023-11-19T12:23:36;12.60;;;2.03;;
4096;SDS011;2062;50.694;7.246;2023-11-19T12:29:03;11.25;;;1.90;;
4096;SDS011;2062;50.694;7.246;2023-11-19T12:31:31;13.70;;;1.70;;
4096;SDS011;2062;50.694;7.246;2023-11-19T12:34:01;11.25;;;1.60;;
4096;SDS011;2062;50.694;7.246;2023-11-19T12:36:36;15.40;;;1.77;;
4096;SDS011;2062;50.694;7.246;2023-11-19T12:39:06;12.10;;;1.97;;
4096;SDS011;2062;50.694;7.246;2023-11-19T12:41:33;9.48;;;1.75;;
4096;SDS011;2062;50.694;7.246;2023-11-19T12:44:16;12.57;;;1.90;;
4096;SDS011;2062;50.694;7.246;2023-11-19T12:46:42;15.73;;;2.00;;
4096;SDS011;2062;50.694;7.246;2023-11-19T12:49:10;11.80;;;1.85;;
4096;SDS011;2062;50.694;7.246;2023-11-19T12:51:37;9.90;;;1.70;;
4096;SDS011;2062;50.694;7.246;2023-11-19T12:54:05;13.35;;;1.85;;
4096;SDS011;2062;50.694;7.246;2023-11-19T12:56:32;11.13;;;1.80;;
4096;SDS011;2062;50.694;7.246;2023-11-19T12:59:09;8.82;;;1.55;;
4096;SDS011;2062;50.694;7.246;2023-11-19T13:01:37;13.20;;;1.90;;
4096;SDS011;2062;50.694;7.246;2023-11-19T13:04:15;9.20;;;1.70;;
4096;SDS011;2062;50.694;7.246;2023-11-19T13:06:44;11.10;;;1.90;;
4096;SDS011;2062;50.694;7.246;2023-11-19T13:09:22;10.23;;;1.73;;
4096;SDS011;2062;50.694;7.246;2023-11-19T13:11:49;11.30;;;1.25;;
4096;SDS011;2062;50.694;7.246;2023-11-19T13:14:16;10.50;;;1.35;;
4096;SDS011;2062;50.694;7.246;2023-11-19T13:16:44;8.57;;;1.30;;
4096;SDS011;2062;50.694;7.246;2023-11-19T13:19:11;11.48;;;1.35;;
4096;SDS011;2062;50.694;7.246;2023-11-19T13:21:38;9.25;;;1.40;;
4096;SDS011;2062;50.694;7.246;2023-11-19T13:24:05;11.68;;;1.60;;
4096;SDS011;2062;50.694;7.246;2023-11-19T13:26:33;14.65;;;2.08;;
4096;SDS011;2062;50.694;7.246;2023-11-19T13:29:00;9.10;;;1.20;;
4096;SDS011;2062;50.694;7.246;2023-11-19T13:31:27;10.75;;;1.30;;
4096;SDS011;2062;50.694;7.246;2023-11-19T13:33:54;8.10;;;1.50;;
4096;SDS011;2062;50.694;7.246;2023-11-19T13:36:21;12.57;;;1.85;;
4096;SDS011;2062;50.694;7.246;2023-11-19T13:38:48;11.02;;;1.55;;
4096;SDS011;2062;50.694;7.246;2023-11-19T13:41:15;12.50;;;1.67;;
4096;SDS011;2062;50.694;7.246;2023-11-19T13:43:43;8.02;;;1.23;;
4096;SDS011;2062;50.694;7.246;2023-11-19T13:46:10;9.95;;;1.40;;
4096;SDS011;2062;50.694;7.246;2023-11-19T13:48:37;10.43;;;1.40;;
4096;SDS011;2062;50.694;7.246;2023-11-19T13:51:04;10.13;;;1.55;;
4096;SDS011;2062;50.694;7.246;2023-11-19T13:53:31;12.17;;;1.27;;
4096;SDS011;2062;50.694;7.246;2023-11-19T13:55:58;16.17;;;1.52;;
4096;SDS011;2062;50.694;7.246;2023-11-19T13:58:25;9.63;;;1.38;;
4096;SDS011;2062;50.694;7.246;2023-11-19T14:00:53;12.23;;;1.40;;
4096;SDS011;2062;50.694;7.246;2023-11-19T14:03:20;13.00;;;1.48;;
4096;SDS011;2062;50.694;7.246;2023-11-19T14:05:46;12.60;;;1.27;;
4096;SDS011;2062;50.694;7.246;2023-11-19T14:08:17;12.85;;;1.65;;
4096;SDS011;2062;50.694;7.246;2023-11-19T14:10:44;12.45;;;1.83;;
4096;SDS011;2062;50.694;7.246;2023-11-19T14:13:11;9.70;;;1.42;;
4096;SDS011;2062;50.694;7.246;2023-11-19T14:15:38;10.43;;;1.42;;
4096;SDS011;2062;50.694;7.246;2023-11-19T14:18:06;15.33;;;1.57;;
4096;SDS011;2062;50.694;7.246;2023-11-19T14:20:33;13.25;;;1.65;;
4096;SDS011;2062;50.694;7.246;2023-11-19T14:23:01;12.57;;;2.15;;
4096;SDS011;2062;50.694;7.246;2023-11-19T14:25:28;11.25;;;1.48;;
4096;SDS011;2062;50.694;7.246;2023-11-19T14:27:54;9.98;;;1.38;;
4096;SDS011;2062;50.694;7.246;2023-11-19T14:30:21;13.73;;;1.83;;
4096;SDS011;2062;50.694;7.246;2023-11-19T14:32:48;11.63;;;1.90;;
4096;SDS011;2062;50.694;7.246;2023-11-19T14:35:16;11.68;;;1.58;;
4096;SDS011;2062;50.694;7.246;2023-11-19T14:37:43;10.98;;;1.55;;
4096;SDS011;2062;50.694;7.246;2023-11-19T14:40:11;10.77;;;1.75;;
4096;SDS011;2062;50.694;7.246;2023-11-19T14:42:38;14.70;;;1.63;;
4096;SDS011;2062;50.694;7.246;2023-11-19T14:45:05;15.40;;;1.73;;
4096;SDS011;2062;50.694;7.246;2023-11-19T14:47:37;12.85;;;1.83;;
4096;SDS011;2062;50.694;7.246;2023-11-19T14:50:04;16.02;;;2.20;;
4096;SDS011;2062;50.694;7.246;2023-11-19T14:52:33;14.25;;;2.55;;
4096;SDS011;2062;50.694;7.246;2023-11-19T14:55:01;11.57;;;1.80;;
4096;SDS011;2062;50.694;7.246;2023-11-19T14:57:27;13.18;;;1.77;;
4096;SDS011;2062;50.694;7.246;2023-11-19T14:59:54;10.15;;;1.63;;
4096;SDS011;2062;50.694;7.246;2023-11-19T15:02:21;12.82;;;2.05;;
4096;SDS011;2062;50.694;7.246;2023-11-19T15:04:48;8.77;;;1.42;;
4096;SDS011;2062;50.694;7.246;2023-11-19T15:07:14;11.13;;;1.10;;
4096;SDS011;2062;50.694;7.246;2023-11-19T15:09:42;11.90;;;1.40;;
4096;SDS011;2062;50.694;7.246;2023-11-19T15:12:10;8.15;;;1.38;;
4096;SDS011;2062;50.694;7.246;2023-11-19T15:14:37;7.60;;;1.20;;
4096;SDS011;2062;50.694;7.246;2023-11-19T15:17:04;6.28;;;1.30;;
4096;SDS011;2062;50.694;7.246;2023-11-19T15:19:32;10.17;;;1.10;;
4096;SDS011;2062;50.694;7.246;2023-11-19T15:21:59;7.45;;;1.17;;